Time;durP1;ratioP1;P1;durP2;ratioP2;P2;SDS_P1;SDS_P2;PMS_P1;PMS_P2;Temp;Humidity;BMP_temperature;BMP_pressure;BME280_temperature;BME280_humidity;BME280_pressure;Samples;Min_cycle;Max_cycle;Signal;HPM_P1;HPM_P2
2022/12/23 00:00:23;;;;;;;1999.90;999.90;;;9.00;99.90;;;;;;4963823;28;20497;-68
2022/12/23 00:02:49;;;;;;;1999.90;999.90;;;8.80;99.90;;;;;;4967459;28;20494;-67
2022/12/23 00:05:16;;;;;;;1999.90;999.90;;;8.60;99.90;;;;;;4976082;28;20482;-68
2022/12/23 00:07:44;;;;;;;1999.90;999.90;;;8.60;99.90;;;;;;4967131;28;20470;-68
2022/12/23 00:10:12;;;;;;;1999.90;999.90;;;8.70;99.90;;;;;;4968160;28;21330;-68
2022/12/23 00:15:22;;;;;;;1999.90;999.90;;;8.40;99.90;;;;;;4967718;28;20580;-68
2022/12/23 00:17:49;;;;;;;1999.90;999.90;;;8.20;99.90;;;;;;4966364;28;20555;-68
2022/12/23 00:20:15;;;;;;;1999.90;999.90;;;8.20;99.90;;;;;;4968365;28;20852;-65
2022/12/23 00:25:39;;;;;;;1999.90;999.90;;;7.90;99.90;;;;;;4973931;28;21058;-65
2022/12/23 00:28:06;;;;;;;1999.90;999.90;;;7.90;99.90;;;;;;4968171;28;20472;-65
2022/12/23 00:30:33;;;;;;;1999.90;999.90;;;8.00;99.90;;;;;;4967056;28;20908;-65
2022/12/23 00:33:00;;;;;;;1999.90;999.90;;;8.00;99.90;;;;;;4966007;28;20960;-68
2022/12/23 00:35:30;;;;;;;1999.90;999.90;;;8.00;99.90;;;;;;4969666;28;20536;-67
2022/12/23 00:37:58;;;;;;;1999.90;999.90;;;8.00;99.90;;;;;;4970422;28;20466;-65
2022/12/23 00:43:11;;;;;;;1999.90;999.90;;;8.10;99.90;;;;;;4959746;28;20513;-66
2022/12/23 00:45:38;;;;;;;1999.90;999.90;;;8.10;99.90;;;;;;4965457;28;20567;-66
2022/12/23 00:50:52;;;;;;;1999.90;999.90;;;8.00;99.90;;;;;;4973070;28;20478;-66
2022/12/23 00:53:20;;;;;;;1999.90;999.90;;;8.00;99.90;;;;;;4966659;28;20468;-66
2022/12/23 00:55:47;;;;;;;1999.90;999.90;;;8.10;99.90;;;;;;4972478;28;20487;-67
2022/12/23 00:58:14;;;;;;;1999.90;999.90;;;8.00;99.90;;;;;;4968558;28;20467;-66
2022/12/23 01:06:09;;;;;;;1999.90;999.90;;;8.30;99.90;;;;;;4969289;28;20456;-66
2022/12/23 01:08:38;;;;;;;1999.90;999.90;;;8.50;99.90;;;;;;4973490;28;20478;-66
2022/12/23 01:11:07;;;;;;;1999.90;999.90;;;8.80;99.90;;;;;;4970971;28;20527;-66
2022/12/23 01:13:34;;;;;;;1999.90;999.90;;;9.00;99.90;;;;;;4975332;28;20498;-66
2022/12/23 01:16:02;;;;;;;1999.90;999.90;;;9.30;99.90;;;;;;4976745;28;20690;-66
2022/12/23 01:18:28;;;;;;;1999.90;999.90;;;9.40;99.90;;;;;;4968536;28;20469;-68
2022/12/23 01:20:55;;;;;;;1999.90;999.90;;;9.40;99.90;;;;;;4973024;28;20552;-68
2022/12/23 01:23:22;;;;;;;1999.90;999.90;;;9.60;99.90;;;;;;4972957;28;20520;-67
2022/12/23 01:25:57;;;;;;;1999.90;999.90;;;9.70;99.90;;;;;;4969644;28;21066;-65
2022/12/23 01:28:24;;;;;;;1999.90;999.90;;;9.90;99.90;;;;;;4969080;28;20773;-66
2022/12/23 01:30:50;;;;;;;1999.90;999.90;;;9.90;99.90;;;;;;4976207;28;20466;-66
2022/12/23 01:33:17;;;;;;;1999.90;999.90;;;10.00;99.90;;;;;;4964454;28;20506;-66
2022/12/23 01:35:43;;;;;;;1999.90;999.90;;;10.00;99.90;;;;;;4968869;28;20538;-69
2022/12/23 01:38:10;;;;;;;1999.90;999.90;;;10.00;99.90;;;;;;4967244;28;20520;-65
2022/12/23 01:40:37;;;;;;;1999.90;999.90;;;10.10;99.90;;;;;;4975281;28;20466;-66
2022/12/23 01:43:04;;;;;;;1999.90;999.90;;;10.20;99.90;;;;;;4966718;28;20536;-65
2022/12/23 01:45:31;;;;;;;1999.90;999.90;;;10.20;99.90;;;;;;4969642;28;20480;-66
2022/12/23 01:48:03;;;;;;;1999.90;999.90;;;10.20;99.90;;;;;;4968002;28;20981;-67
2022/12/23 01:50:32;;;;;;;1999.90;999.90;;;10.10;99.90;;;;;;4968897;28;20512;-66
2022/12/23 01:53:03;;;;;;;1999.90;999.90;;;10.10;99.90;;;;;;4966757;28;20501;-65
2022/12/23 01:55:32;;;;;;;1999.90;999.90;;;10.10;99.90;;;;;;4964752;28;20910;-67
2022/12/23 01:58:05;;;;;;;1999.90;999.90;;;10.10;99.90;;;;;;4969702;28;20518;-66
2022/12/23 02:09:15;;;;;;;1999.90;999.90;;;10.10;99.90;;;;;;4961186;28;20557;-66
2022/12/23 02:11:44;;;;;;;1999.90;999.90;;;10.00;99.90;;;;;;4965624;28;20864;-66
2022/12/23 02:17:24;;;;;;;1999.90;999.90;;;10.00;99.90;;;;;;4967302;28;21094;-67
2022/12/23 02:20:16;;;;;;;1999.90;999.90;;;10.00;99.90;;;;;;4972328;28;20527;-67
2022/12/23 02:22:59;;;;;;;1999.90;999.90;;;10.00;99.90;;;;;;4969113;28;20522;-68
2022/12/23 02:25:49;;;;;;;1999.90;999.90;;;10.10;99.90;;;;;;4971843;28;20623;-67
2022/12/23 02:28:35;;;;;;;1999.90;999.90;;;10.10;99.90;;;;;;4972847;28;20835;-66
2022/12/23 02:31:09;;;;;;;1999.90;999.90;;;10.20;99.90;;;;;;4976738;28;20527;-67
2022/12/23 02:33:46;;;;;;;1999.90;999.90;;;10.20;99.90;;;;;;4974689;28;20468;-67
2022/12/23 02:36:25;;;;;;;1999.90;999.90;;;10.20;99.90;;;;;;4971562;28;20488;-66
2022/12/23 02:38:59;;;;;;;1999.90;999.90;;;10.20;99.90;;;;;;4971213;28;20971;-68
2022/12/23 02:41:34;;;;;;;1999.90;999.90;;;10.30;99.90;;;;;;4969301;28;20493;-67
2022/12/23 02:44:07;;;;;;;1999.90;999.90;;;10.20;99.90;;;;;;4973586;28;20914;-67
2022/12/23 02:46:41;;;;;;;1999.90;999.90;;;10.30;99.90;;;;;;4967429;28;20528;-68
2022/12/23 02:49:13;;;;;;;1999.90;999.90;;;10.20;99.90;;;;;;4972972;28;20493;-68
2022/12/23 02:51:44;;;;;;;1999.90;999.90;;;10.30;99.90;;;;;;4973319;28;20964;-68
2022/12/23 02:54:14;;;;;;;1999.90;999.90;;;10.20;99.90;;;;;;4969121;28;20550;-67
2022/12/23 02:56:45;;;;;;;1999.90;999.90;;;10.20;99.90;;;;;;4972156;28;20457;-67
2022/12/23 02:59:15;;;;;;;1999.90;999.90;;;10.10;99.90;;;;;;4971336;28;21018;-66
2022/12/23 03:01:44;;;;;;;1999.90;999.90;;;10.00;99.90;;;;;;4974147;28;20462;-67
2022/12/23 03:04:11;;;;;;;1999.90;999.90;;;10.00;99.90;;;;;;4974847;28;20867;-67
2022/12/23 03:06:41;;;;;;;1999.90;999.90;;;10.00;99.90;;;;;;4971985;28;20493;-67
2022/12/23 03:09:09;;;;;;;1999.90;999.90;;;9.90;99.90;;;;;;4970228;28;20968;-67
2022/12/23 03:11:47;;;;;;;1999.90;999.90;;;9.90;99.90;;;;;;4972497;28;20471;-67
2022/12/23 03:14:32;;;;;;;1999.90;999.90;;;10.00;99.90;;;;;;4971193;28;20492;-67
2022/12/23 03:17:11;;;;;;;1999.90;999.90;;;10.00;99.90;;;;;;4976280;28;20497;-70
2022/12/23 03:19:44;;;;;;;1999.90;999.90;;;10.00;99.90;;;;;;4970270;28;20486;-68
2022/12/23 03:22:20;;;;;;;1999.90;999.90;;;10.00;99.90;;;;;;4971755;28;20457;-67
2022/12/23 03:24:53;;;;;;;1999.90;999.90;;;10.10;99.90;;;;;;4970157;28;20513;-68
2022/12/23 03:27:26;;;;;;;1999.90;999.90;;;10.10;99.90;;;;;;4971410;28;20532;-68
2022/12/23 03:29:59;;;;;;;1999.90;999.90;;;10.00;99.90;;;;;;4974074;28;20554;-67
2022/12/23 03:32:32;;;;;;;1999.90;999.90;;;10.10;99.90;;;;;;4964176;28;20564;-68
2022/12/23 03:35:01;;;;;;;1999.90;999.90;;;10.10;99.90;;;;;;4971746;28;20537;-65
2022/12/23 03:37:31;;;;;;;1999.90;999.90;;;10.10;99.90;;;;;;4973018;28;20885;-68
2022/12/23 03:40:04;;;;;;;1999.90;999.90;;;10.20;99.90;;;;;;4975638;28;20537;-68
2022/12/23 03:42:35;;;;;;;1999.90;999.90;;;10.10;99.90;;;;;;4972537;28;20454;-67
2022/12/23 03:45:07;;;;;;;1999.90;999.90;;;10.10;99.90;;;;;;4975017;28;20517;-67
2022/12/23 03:47:44;;;;;;;1999.90;999.90;;;10.10;99.90;;;;;;4975108;28;20886;-65
2022/12/23 03:50:13;;;;;;;1999.90;999.90;;;10.10;99.90;;;;;;4971048;28;20489;-66
2022/12/23 03:52:44;;;;;;;1999.90;999.90;;;10.10;99.90;;;;;;4968688;28;20458;-67
2022/12/23 03:55:18;;;;;;;1999.90;999.90;;;10.10;99.90;;;;;;4979035;28;20461;-67
2022/12/23 03:57:49;;;;;;;1999.90;999.90;;;10.00;99.90;;;;;;4991725;28;20445;-67
2022/12/23 04:00:16;;;;;;;1999.90;999.90;;;10.00;99.90;;;;;;4973391;28;20903;-66
2022/12/23 04:02:52;;;;;;;1999.90;999.90;;;10.00;99.90;;;;;;4972161;28;20516;-67
2022/12/23 04:05:25;;;;;;;1999.90;999.90;;;10.10;99.90;;;;;;4970932;28;20512;-67
2022/12/23 04:07:55;;;;;;;1999.90;999.90;;;10.10;99.90;;;;;;4974859;28;20458;-67
2022/12/23 04:10:23;;;;;;;1999.90;999.90;;;10.10;99.90;;;;;;4975366;28;20954;-67
2022/12/23 04:12:50;;;;;;;1999.90;999.90;;;10.00;99.90;;;;;;4969938;28;20473;-67
2022/12/23 04:15:20;;;;;;;1999.90;999.90;;;9.90;99.90;;;;;;4972021;28;20493;-65
2022/12/23 04:17:48;;;;;;;1999.90;999.90;;;9.90;99.90;;;;;;4971698;28;20978;-65
2022/12/23 04:20:15;;;;;;;1999.90;999.90;;;9.90;99.90;;;;;;4974800;28;20457;-66
2022/12/23 04:22:43;;;;;;;1999.90;999.90;;;9.90;99.90;;;;;;4970747;28;20462;-67
2022/12/23 04:25:10;;;;;;;1999.90;999.90;;;9.80;99.90;;;;;;4973990;28;20491;-66
2022/12/23 04:27:37;;;;;;;1999.90;999.90;;;9.90;99.90;;;;;;4971606;28;20493;-66
2022/12/23 04:30:04;;;;;;;1999.90;999.90;;;9.90;99.90;;;;;;4972158;28;20518;-67
2022/12/23 04:32:31;;;;;;;1999.90;999.90;;;9.90;99.90;;;;;;4971436;28;20524;-67
2022/12/23 04:34:58;;;;;;;1999.90;999.90;;;9.90;99.90;;;;;;4975399;28;20513;-67
2022/12/23 04:37:25;;;;;;;1999.90;999.90;;;10.00;99.90;;;;;;4971822;28;20951;-68
2022/12/23 04:39:52;;;;;;;1999.90;999.90;;;10.00;99.90;;;;;;4969566;28;20482;-68
2022/12/23 04:42:18;;;;;;;1999.90;999.90;;;10.00;99.90;;;;;;4972788;28;21045;-67
2022/12/23 04:44:45;;;;;;;1999.90;999.90;;;10.00;99.90;;;;;;4973159;28;20478;-67
2022/12/23 04:47:11;;;;;;;1999.90;999.90;;;10.20;99.90;;;;;;4974993;28;20457;-67
2022/12/23 04:49:38;;;;;;;1999.90;999.90;;;10.20;99.90;;;;;;4969431;28;20572;-67
2022/12/23 04:52:06;;;;;;;1999.90;999.90;;;10.20;99.90;;;;;;4976305;28;20469;-68
2022/12/23 04:54:33;;;;;;;1999.90;999.90;;;10.30;99.90;;;;;;4973377;28;20567;-66
2022/12/23 04:56:59;;;;;;;1999.90;999.90;;;10.30;99.90;;;;;;4974648;28;20469;-67
2022/12/23 04:59:26;;;;;;;1999.90;999.90;;;10.20;99.90;;;;;;4967371;28;20485;-68
2022/12/23 05:01:52;;;;;;;1999.90;999.90;;;10.20;99.90;;;;;;4971296;28;20513;-66
2022/12/23 05:04:19;;;;;;;1999.90;999.90;;;10.30;99.90;;;;;;4970542;28;21097;-65
2022/12/23 05:06:46;;;;;;;1999.90;999.90;;;10.20;99.90;;;;;;4973860;28;20489;-65
2022/12/23 05:09:14;;;;;;;1999.90;999.90;;;10.30;99.90;;;;;;4971323;28;20969;-64
2022/12/23 05:11:40;;;;;;;1999.90;999.90;;;10.30;99.90;;;;;;4972198;28;20458;-64
2022/12/23 05:14:08;;;;;;;1999.90;999.90;;;10.30;99.90;;;;;;4970676;28;21009;-65
2022/12/23 05:16:35;;;;;;;1999.90;999.90;;;10.30;99.90;;;;;;5025216;23;20561;-64
2022/12/23 05:19:02;;;;;;;1999.90;999.90;;;10.40;99.90;;;;;;5032547;28;20467;-64
2022/12/23 05:21:28;;;;;;;1999.90;999.90;;;10.40;99.90;;;;;;5031620;28;20445;-67
2022/12/23 05:23:55;;;;;;;1999.90;999.90;;;10.40;99.90;;;;;;5031068;28;20208;-68
2022/12/23 05:26:23;;;;;;;1999.90;999.90;;;10.30;99.90;;;;;;5037336;28;20572;-65
2022/12/23 05:28:50;;;;;;;1999.90;999.90;;;10.30;99.90;;;;;;5039870;28;20491;-68
2022/12/23 05:31:16;;;;;;;1999.90;999.90;;;10.20;99.90;;;;;;5042455;28;20512;-67
2022/12/23 05:33:44;;;;;;;1999.90;999.90;;;10.20;99.90;;;;;;5038902;28;20466;-68
2022/12/23 05:36:11;;;;;;;1999.90;999.90;;;10.10;99.90;;;;;;5040814;28;20608;-68
2022/12/23 05:38:38;;;;;;;1999.90;999.90;;;10.20;99.90;;;;;;5038632;28;20456;-66
2022/12/23 05:41:05;;;;;;;1999.90;999.90;;;10.10;99.90;;;;;;5043439;28;20886;-65
2022/12/23 05:43:33;;;;;;;1999.90;999.90;;;10.10;99.90;;;;;;5038298;28;21240;-68
2022/12/23 05:45:59;;;;;;;1999.90;999.90;;;10.20;99.90;;;;;;5042746;28;20475;-69
2022/12/23 05:48:26;;;;;;;1999.90;999.90;;;10.10;99.90;;;;;;5039488;28;20951;-68
2022/12/23 05:50:53;;;;;;;1999.90;999.90;;;10.10;99.90;;;;;;5037576;28;20565;-68
2022/12/23 05:53:20;;;;;;;1999.90;999.90;;;10.20;99.90;;;;;;5043695;28;20462;-65
2022/12/23 05:55:47;;;;;;;1999.90;999.90;;;10.10;99.90;;;;;;5037744;28;20489;-66
2022/12/23 05:58:14;;;;;;;1999.90;999.90;;;10.10;99.90;;;;;;5044872;28;20960;-64
2022/12/23 06:00:42;;;;;;;1999.90;999.90;;;10.20;99.90;;;;;;5043086;28;20458;-65
2022/12/23 06:03:09;;;;;;;1999.90;999.90;;;10.20;99.90;;;;;;5042566;28;20458;-65
2022/12/23 06:05:37;;;;;;;1999.90;999.90;;;10.20;99.90;;;;;;5042604;28;20512;-68
2022/12/23 06:08:04;;;;;;;1999.90;999.90;;;10.20;99.90;;;;;;5044038;28;20493;-67
2022/12/23 06:10:31;;;;;;;1999.90;999.90;;;10.20;99.90;;;;;;5041789;28;20537;-65
2022/12/23 06:12:57;;;;;;;1999.90;999.90;;;10.20;99.90;;;;;;5041767;28;20467;-65
2022/12/23 06:15:24;;;;;;;1999.90;999.90;;;10.20;99.90;;;;;;5041943;28;20518;-66
2022/12/23 06:17:52;;;;;;;1999.90;999.90;;;10.10;99.90;;;;;;5043232;28;20980;-65
2022/12/23 06:20:18;;;;;;;1999.90;999.90;;;10.20;99.90;;;;;;5045738;28;20903;-65
2022/12/23 06:22:45;;;;;;;1999.90;999.90;;;10.10;99.90;;;;;;5037911;28;20520;-65
2022/12/23 06:25:12;;;;;;;1999.90;999.90;;;10.10;99.90;;;;;;5042574;28;20478;-67
2022/12/23 06:27:38;;;;;;;1999.90;999.90;;;10.00;99.90;;;;;;5035780;28;20917;-67
2022/12/23 06:30:06;;;;;;;1999.90;999.90;;;10.00;99.90;;;;;;5046024;28;20575;-67
2022/12/23 06:32:32;;;;;;;1999.90;999.90;;;10.00;99.90;;;;;;5045935;28;20458;-67
2022/12/23 06:35:00;;;;;;;1999.90;999.90;;;10.00;99.90;;;;;;5043760;28;20565;-68
2022/12/23 06:37:27;;;;;;;1999.90;999.90;;;10.00;99.90;;;;;;5047328;28;20560;-68
2022/12/23 06:39:53;;;;;;;1999.90;999.90;;;9.80;99.90;;;;;;5041808;28;20835;-68
2022/12/23 06:42:20;;;;;;;1999.90;999.90;;;9.90;99.90;;;;;;5038884;28;20512;-67
2022/12/23 06:44:47;;;;;;;1999.90;999.90;;;9.90;99.90;;;;;;5046292;28;20462;-67
2022/12/23 06:47:13;;;;;;;1999.90;999.90;;;9.90;99.90;;;;;;5043078;28;20515;-67
2022/12/23 06:49:40;;;;;;;1999.90;999.90;;;9.90;99.90;;;;;;5041850;28;20511;-67
2022/12/23 06:52:08;;;;;;;1999.90;999.90;;;9.90;99.90;;;;;;5037298;28;20844;-67
2022/12/23 06:54:34;;;;;;;1999.90;999.90;;;9.90;99.90;;;;;;5038776;28;20467;-67
2022/12/23 06:57:01;;;;;;;1999.90;999.90;;;9.90;99.90;;;;;;5045195;28;20993;-67
2022/12/23 06:59:28;;;;;;;1999.90;999.90;;;9.90;99.90;;;;;;5041663;28;20471;-67
2022/12/23 07:01:55;;;;;;;1999.90;999.90;;;10.00;99.90;;;;;;5047362;28;20961;-68
2022/12/23 07:04:22;;;;;;;1999.90;999.90;;;10.00;99.90;;;;;;5044600;28;21056;-67
2022/12/23 07:06:48;;;;;;;1999.90;999.90;;;10.00;99.90;;;;;;5049037;28;20505;-67
2022/12/23 07:09:16;;;;;;;1999.90;999.90;;;10.00;99.90;;;;;;5040303;28;20483;-67
2022/12/23 07:11:43;;;;;;;1999.90;999.90;;;10.00;99.90;;;;;;5034135;28;20519;-68
2022/12/23 07:14:10;;;;;;;1999.90;999.90;;;10.00;99.90;;;;;;5046513;28;20459;-67
2022/12/23 07:16:37;;;;;;;1999.90;999.90;;;10.00;99.90;;;;;;5041605;28;20566;-67
2022/12/23 07:19:03;;;;;;;1999.90;999.90;;;10.00;99.90;;;;;;5033261;28;20839;-67
2022/12/23 07:21:30;;;;;;;1999.90;999.90;;;10.00;99.90;;;;;;5032466;28;20444;-67
2022/12/23 07:23:56;;;;;;;1999.90;999.90;;;10.00;99.90;;;;;;5032230;28;20537;-68
2022/12/23 07:26:24;;;;;;;1999.90;999.90;;;9.90;99.90;;;;;;5030445;28;20531;-67
2022/12/23 07:28:51;;;;;;;1999.90;999.90;;;10.00;99.90;;;;;;5033661;28;20473;-67
2022/12/23 07:31:17;;;;;;;1999.90;999.90;;;10.10;99.90;;;;;;5032863;28;20919;-67
2022/12/23 07:33:44;;;;;;;1999.90;999.90;;;10.10;99.90;;;;;;5033692;28;20497;-67
2022/12/23 07:36:11;;;;;;;1999.90;999.90;;;10.00;99.90;;;;;;5033383;28;20463;-67
2022/12/23 07:38:37;;;;;;;1999.90;999.90;;;9.90;99.90;;;;;;5032836;28;20495;-68
2022/12/23 07:41:04;;;;;;;1999.90;999.90;;;9.80;99.90;;;;;;5034398;28;20462;-66
2022/12/23 07:43:32;;;;;;;1999.90;999.90;;;9.70;99.90;;;;;;5027723;28;20494;-68
2022/12/23 07:45:59;;;;;;;1999.90;999.90;;;9.80;99.90;;;;;;5036020;28;20518;-67
2022/12/23 07:48:25;;;;;;;1999.90;999.90;;;9.60;99.90;;;;;;5043019;28;20508;-68
2022/12/23 07:50:52;;;;;;;1999.90;999.90;;;9.60;99.90;;;;;;5037920;28;20501;-68
2022/12/23 07:53:18;;;;;;;1999.90;999.90;;;9.50;99.90;;;;;;5031198;28;20459;-66
2022/12/23 07:55:45;;;;;;;1999.90;999.90;;;9.50;99.90;;;;;;5031805;28;20513;-68
2022/12/23 07:58:11;;;;;;;1999.90;999.90;;;9.50;99.90;;;;;;5032949;28;20451;-68
2022/12/23 08:00:39;;;;;;;1999.90;999.90;;;9.50;99.90;;;;;;5038596;28;20443;-67
2022/12/23 08:03:06;;;;;;;1999.90;999.90;;;9.50;99.90;;;;;;5036777;28;20803;-67
2022/12/23 08:05:32;;;;;;;1999.90;999.90;;;9.50;99.90;;;;;;5031128;28;20503;-66
2022/12/23 08:07:59;;;;;;;1999.90;999.90;;;9.50;99.90;;;;;;5032105;28;20204;-67
2022/12/23 08:10:26;;;;;;;1999.90;999.90;;;9.40;99.90;;;;;;5032214;28;20506;-62
2022/12/23 08:12:52;;;;;;;1999.90;999.90;;;9.40;99.90;;;;;;5052866;28;20943;-64
2022/12/23 08:15:19;;;;;;;1999.90;999.90;;;9.40;99.90;;;;;;5035085;28;20503;-63
2022/12/23 08:17:47;;;;;;;1999.90;999.90;;;9.40;99.90;;;;;;5032889;28;20443;-65
2022/12/23 08:20:13;;;;;;;1999.90;999.90;;;9.30;99.90;;;;;;5032052;28;20501;-64
2022/12/23 08:22:40;;;;;;;1999.90;999.90;;;9.30;99.90;;;;;;5031669;28;20509;-63
2022/12/23 08:25:07;;;;;;;1999.90;999.90;;;9.30;99.90;;;;;;5032240;28;20471;-62
2022/12/23 08:27:34;;;;;;;1999.90;999.90;;;9.30;99.90;;;;;;5031383;28;20473;-62
2022/12/23 08:30:01;;;;;;;1999.90;999.90;;;9.30;99.90;;;;;;5035899;28;20472;-64
2022/12/23 08:32:27;;;;;;;1999.90;999.90;;;9.30;99.90;;;;;;5037421;28;21184;-63
2022/12/23 08:34:57;;;;;;;1999.90;999.90;;;9.30;99.90;;;;;;5046584;28;20504;-63
2022/12/23 08:37:24;;;;;;;1999.90;999.90;;;9.20;99.90;;;;;;5037964;28;20459;-64
2022/12/23 08:39:50;;;;;;;1999.90;999.90;;;9.30;99.90;;;;;;5031478;28;20616;-64
2022/12/23 08:42:17;;;;;;;1999.90;999.90;;;9.30;99.90;;;;;;5032470;28;20459;-64
2022/12/23 08:44:43;;;;;;;1999.90;999.90;;;9.20;99.90;;;;;;5036940;28;20494;-65
2022/12/23 08:47:10;;;;;;;1999.90;999.90;;;9.30;99.90;;;;;;5034353;28;20463;-64
2022/12/23 08:49:37;;;;;;;1999.90;999.90;;;9.30;99.90;;;;;;5038080;28;20541;-64
2022/12/23 08:52:05;;;;;;;1999.90;999.90;;;9.30;99.90;;;;;;5039146;28;20482;-61
2022/12/23 08:54:32;;;;;;;1999.90;999.90;;;9.30;99.90;;;;;;5035903;28;20487;-65
2022/12/23 08:56:58;;;;;;;1999.90;999.90;;;9.20;99.90;;;;;;5031073;28;21038;-64
2022/12/23 08:59:25;;;;;;;1999.90;999.90;;;9.30;99.90;;;;;;5042566;28;20514;-63
2022/12/23 09:01:51;;;;;;;1999.90;999.90;;;9.30;99.90;;;;;;5059961;28;20452;-65
2022/12/23 09:04:18;;;;;;;1999.90;999.90;;;9.30;99.90;;;;;;5054813;28;20486;-64
2022/12/23 09:06:45;;;;;;;1999.90;999.90;;;9.30;99.90;;;;;;5048178;28;20554;-64
2022/12/23 09:09:15;;;;;;;1999.90;999.90;;;9.30;99.90;;;;;;5049682;28;20953;-64
2022/12/23 09:11:42;;;;;;;1999.90;999.90;;;9.20;99.90;;;;;;5043257;28;20487;-63
2022/12/23 09:14:10;;;;;;;1999.90;999.90;;;9.30;99.90;;;;;;5023428;28;21413;-64
2022/12/23 09:16:37;;;;;;;1999.90;999.90;;;9.20;99.90;;;;;;5028241;28;20486;-64
2022/12/23 09:19:04;;;;;;;1999.90;999.90;;;9.20;99.90;;;;;;5038982;28;20490;-63
2022/12/23 09:21:30;;;;;;;1999.90;999.90;;;9.20;99.90;;;;;;5028489;28;20550;-66
2022/12/23 09:23:57;;;;;;;1999.90;999.90;;;9.20;99.90;;;;;;5041946;28;20462;-66
2022/12/23 09:26:27;;;;;;;1999.90;999.90;;;9.10;99.90;;;;;;5034472;28;21076;-67
2022/12/23 09:28:55;;;;;;;1999.90;999.90;;;9.10;99.90;;;;;;5028068;28;20940;-66
2022/12/23 09:31:22;;;;;;;1999.90;999.90;;;9.20;99.90;;;;;;5038570;28;21064;-65
2022/12/23 09:33:51;;;;;;;1999.90;999.90;;;9.10;99.90;;;;;;5032839;28;21017;-65
2022/12/23 09:36:18;;;;;;;1999.90;999.90;;;9.10;99.90;;;;;;5032494;28;20486;-67
2022/12/23 09:38:45;;;;;;;1999.90;999.90;;;9.10;99.90;;;;;;5032360;28;20975;-66
2022/12/23 09:41:21;;;;;;;1999.90;999.90;;;9.10;99.90;;;;;;5029917;28;20452;-66
2022/12/23 09:43:56;;;;;;;1999.90;999.90;;;9.10;99.90;;;;;;5027929;28;20490;-66
2022/12/23 09:46:27;;;;;;;1999.90;999.90;;;9.10;99.90;;;;;;5026909;28;20478;-66
2022/12/23 09:49:00;;;;;;;1999.90;999.90;;;9.10;99.90;;;;;;5033169;28;20486;-66
2022/12/23 09:51:29;;;;;;;1999.90;999.90;;;9.20;99.90;;;;;;5030432;28;20467;-66
2022/12/23 09:54:03;;;;;;;1999.90;999.90;;;9.10;99.90;;;;;;5030411;28;20534;-66
2022/12/23 09:56:37;;;;;;;1999.90;999.90;;;9.20;99.90;;;;;;5023391;28;20521;-67
2022/12/23 09:59:16;;;;;;;1999.90;999.90;;;9.30;99.90;;;;;;5033604;28;20755;-66
2022/12/23 10:01:52;;;;;;;1999.90;999.90;;;9.30;99.90;;;;;;5026616;28;21026;-66
2022/12/23 10:04:36;;;;;;;1999.90;999.90;;;9.40;99.90;;;;;;5030678;28;20485;-66
2022/12/23 10:07:19;;;;;;;1999.90;999.90;;;9.30;99.90;;;;;;5031151;28;20779;-67
2022/12/23 10:09:48;;;;;;;1999.90;999.90;;;9.20;99.90;;;;;;5035672;28;20466;-64
2022/12/23 10:12:23;;;;;;;1999.90;999.90;;;9.20;99.90;;;;;;5043461;28;20547;-65
2022/12/23 10:14:55;;;;;;;1999.90;999.90;;;9.10;99.90;;;;;;5041027;28;20453;-65
2022/12/23 10:17:28;;;;;;;1999.90;999.90;;;9.10;99.90;;;;;;5031065;28;20493;-66
2022/12/23 10:20:00;;;;;;;1999.90;999.90;;;9.10;99.90;;;;;;5030943;28;20451;-63
2022/12/23 10:22:34;;;;;;;1999.90;999.90;;;9.10;99.90;;;;;;5030806;28;20909;-64
2022/12/23 10:25:05;;;;;;;1999.90;999.90;;;9.20;99.90;;;;;;5031081;28;20805;-65
2022/12/23 10:27:35;;;;;;;1999.90;999.90;;;9.20;99.90;;;;;;5028189;28;20455;-65
2022/12/23 10:30:11;;;;;;;1999.90;999.90;;;9.10;99.90;;;;;;5029117;28;20467;-65
2022/12/23 10:32:53;;;;;;;1999.90;999.90;;;9.10;99.90;;;;;;5030361;28;20497;-65
2022/12/23 10:35:30;;;;;;;1999.90;999.90;;;9.10;99.90;;;;;;5024440;28;20895;-64
2022/12/23 10:38:11;;;;;;;1999.90;999.90;;;9.10;99.90;;;;;;5030775;28;20463;-63
2022/12/23 10:40:49;;;;;;;1999.90;999.90;;;9.10;99.90;;;;;;5033756;28;20509;-63
2022/12/23 10:43:26;;;;;;;1999.90;999.90;;;9.30;99.90;;;;;;5033453;28;20986;-60
2022/12/23 10:46:01;;;;;;;1999.90;999.90;;;9.30;99.90;;;;;;5033032;28;20529;-63
2022/12/23 10:48:43;;;;;;;1999.90;999.90;;;9.40;99.90;;;;;;5034134;28;20936;-63
2022/12/23 10:51:15;;;;;;;1999.90;999.90;;;9.40;99.90;;;;;;5033824;28;20463;-63
2022/12/23 10:53:49;;;;;;;1999.90;999.90;;;9.40;99.90;;;;;;5034617;28;20482;-63
2022/12/23 10:56:17;;;;;;;1999.90;999.90;;;9.40;99.90;;;;;;5034050;28;20991;-63
2022/12/23 10:58:48;;;;;;;1999.90;999.90;;;9.50;99.90;;;;;;5033203;28;20439;-62
2022/12/23 11:01:18;;;;;;;1999.90;999.90;;;9.60;99.90;;;;;;5032665;28;21023;-63
2022/12/23 11:03:54;;;;;;;1999.90;999.90;;;9.60;99.90;;;;;;5033322;28;20439;-63
2022/12/23 11:06:22;;;;;;;1999.90;999.90;;;9.50;99.90;;;;;;5034104;28;20556;-62
2022/12/23 11:08:49;;;;;;;1999.90;999.90;;;9.50;99.90;;;;;;5033593;28;20792;-63
2022/12/23 11:11:16;;;;;;;1999.90;999.90;;;9.60;99.90;;;;;;5034045;28;20568;-63
2022/12/23 11:13:45;;;;;;;1999.90;999.90;;;9.50;99.90;;;;;;5032857;28;20820;-63
2022/12/23 11:16:13;;;;;;;1999.90;999.90;;;9.40;99.90;;;;;;5027876;28;20502;-63
2022/12/23 11:18:53;;;;;;;1999.90;999.90;;;9.50;99.90;;;;;;5031911;28;20885;-62
2022/12/23 11:21:20;;;;;;;1999.90;999.90;;;9.40;99.90;;;;;;5013719;28;20811;-64
2022/12/23 11:23:47;;;;;;;1999.90;999.90;;;9.40;99.90;;;;;;5032422;28;20462;-60
2022/12/23 11:26:19;;;;;;;1999.90;999.90;;;9.40;99.90;;;;;;5040702;28;20906;-62
2022/12/23 11:28:49;;;;;;;1999.90;999.90;;;9.40;99.90;;;;;;5030039;28;21283;-62
2022/12/23 11:31:24;;;;;;;1999.90;999.90;;;9.40;99.90;;;;;;5037445;28;21132;-62
2022/12/23 11:33:59;;;;;;;1999.90;999.90;;;9.50;99.90;;;;;;5037780;28;20454;-63
2022/12/23 11:36:28;;;;;;;1999.90;999.90;;;9.70;99.90;;;;;;5047540;28;20462;-61
2022/12/23 11:39:06;;;;;;;1999.90;999.90;;;9.60;99.90;;;;;;5042651;28;20470;-63
2022/12/23 11:41:38;;;;;;;1999.90;999.90;;;9.60;99.90;;;;;;5044157;28;20451;-64
2022/12/23 11:44:10;;;;;;;1999.90;999.90;;;9.80;99.90;;;;;;5038265;28;20517;-62
2022/12/23 11:46:37;;;;;;;1999.90;999.90;;;9.80;99.90;;;;;;5033151;28;20460;-62
2022/12/23 11:49:17;;;;;;;1999.90;999.90;;;9.90;99.90;;;;;;5033683;28;20447;-62
2022/12/23 11:51:47;;;;;;;1999.90;999.90;;;9.80;99.90;;;;;;5034922;28;20499;-63
2022/12/23 11:54:18;;;;;;;1999.90;999.90;;;9.80;99.90;;;;;;5041896;28;20467;-64
2022/12/23 11:56:49;;;;;;;1999.90;999.90;;;9.80;99.90;;;;;;5038838;28;20995;-64
2022/12/23 11:59:28;;;;;;;1999.90;999.90;;;9.80;99.90;;;;;;5035370;28;21029;-64
2022/12/23 12:01:57;;;;;;;1999.90;999.90;;;9.80;99.90;;;;;;5050815;28;21131;-64
2022/12/23 12:04:28;;;;;;;1999.90;999.90;;;9.90;99.90;;;;;;5035456;28;20501;-62
2022/12/23 12:06:55;;;;;;;1999.90;999.90;;;9.90;99.90;;;;;;5032627;28;20528;-63
2022/12/23 12:09:23;;;;;;;1999.90;999.90;;;9.90;99.90;;;;;;5032902;28;20447;-65
2022/12/23 12:11:53;;;;;;;1999.90;999.90;;;10.00;99.90;;;;;;5032547;28;20562;-64
2022/12/23 12:14:25;;;;;;;1999.90;999.90;;;10.10;99.90;;;;;;5032098;28;20494;-64
2022/12/23 12:16:58;;;;;;;1999.90;999.90;;;10.00;99.90;;;;;;5034016;28;20499;-63
2022/12/23 12:19:29;;;;;;;1999.90;999.90;;;9.90;99.90;;;;;;5031600;28;20498;-64
2022/12/23 12:22:01;;;;;;;1999.90;999.90;;;9.90;99.90;;;;;;5028714;28;20520;-63
2022/12/23 12:24:31;;;;;;;1999.90;999.90;;;9.90;99.90;;;;;;5031305;28;20462;-62
2022/12/23 12:27:02;;;;;;;1999.90;999.90;;;9.90;99.90;;;;;;5031394;28;20494;-62
2022/12/23 12:29:36;;;;;;;1999.90;999.90;;;9.80;99.90;;;;;;5029539;28;20460;-63
2022/12/23 12:32:05;;;;;;;1999.90;999.90;;;9.70;99.90;;;;;;5032601;28;20482;-62
2022/12/23 12:34:41;;;;;;;1999.90;999.90;;;9.70;99.90;;;;;;5031918;28;20550;-64
2022/12/23 12:37:19;;;;;;;1999.90;999.90;;;9.60;99.90;;;;;;5033470;28;20515;-63
2022/12/23 12:39:52;;;;;;;1999.90;999.90;;;9.60;99.90;;;;;;5032531;28;20467;-62
2022/12/23 12:42:25;;;;;;;1999.90;999.90;;;9.60;99.90;;;;;;5032043;28;20464;-62